createdAt,value
2023-05-11T00:01:37.526Z,53.71
2023-05-11T00:04:05.924Z,53.82
2023-05-11T00:06:34.347Z,54.00
2023-05-11T00:09:02.691Z,54.12
2023-05-11T00:11:31.254Z,54.34
2023-05-11T00:13:59.185Z,54.38
2023-05-11T00:16:27.489Z,54.61
2023-05-11T00:18:55.644Z,54.86
2023-05-11T00:21:23.784Z,55.08
2023-05-11T00:23:51.939Z,55.32
2023-05-11T00:26:21.662Z,55.39
2023-05-11T00:28:49.603Z,55.61
2023-05-11T00:31:17.911Z,55.82
2023-05-11T00:33:46.837Z,55.94
2023-05-11T00:36:15.229Z,56.19
2023-05-11T00:38:43.511Z,56.34
2023-05-11T00:41:11.493Z,56.45
2023-05-11T00:43:39.589Z,56.54
2023-05-11T00:46:07.838Z,56.60
2023-05-11T00:48:36.002Z,56.85
2023-05-11T00:51:04.654Z,57.02
2023-05-11T00:53:33.142Z,57.19
2023-05-11T00:56:01.565Z,57.34
2023-05-11T00:58:31.308Z,57.53
2023-05-11T01:00:59.306Z,57.78
2023-05-11T01:03:27.728Z,57.97
2023-05-11T01:06:16.929Z,58.16
2023-05-11T01:08:52.879Z,58.11
2023-05-11T01:11:30.994Z,58.42
2023-05-11T01:14:27.807Z,58.59
2023-05-11T01:17:03.901Z,58.48
2023-05-11T01:19:47.274Z,58.87
2023-05-11T01:22:34.952Z,59.17
2023-05-11T01:25:19.518Z,59.27
2023-05-11T01:27:54.077Z,59.35
2023-05-11T01:30:29.537Z,59.40
2023-05-11T01:33:07.882Z,59.51
2023-05-11T01:35:41.528Z,59.62
2023-05-11T01:38:14.321Z,59.90
2023-05-11T01:40:44.590Z,60.27
2023-05-11T01:43:23.814Z,60.35
2023-05-11T01:45:56.023Z,60.65
2023-05-11T01:48:26.019Z,60.81
2023-05-11T01:51:00.482Z,60.04
2023-05-11T01:53:31.541Z,60.98
2023-05-11T01:56:00.889Z,61.43
2023-05-11T01:58:30.600Z,61.53
2023-05-11T02:01:00.443Z,61.65
2023-05-11T02:03:31.480Z,61.86
2023-05-11T02:06:01.697Z,61.89
2023-05-11T02:08:31.877Z,62.15
2023-05-11T02:11:03.005Z,62.39
2023-05-11T02:13:33.438Z,62.51
2023-05-11T02:16:02.749Z,62.94
2023-05-11T02:18:33.366Z,62.92
2023-05-11T02:21:03.234Z,63.28
2023-05-11T02:23:33.245Z,63.69
2023-05-11T02:26:03.920Z,64.22
2023-05-11T02:28:32.212Z,64.43
2023-05-11T02:31:08.582Z,64.82
2023-05-11T02:33:44.868Z,65.21
2023-05-11T02:36:18.930Z,65.98
2023-05-11T02:38:48.381Z,66.32
2023-05-11T02:41:24.291Z,66.99
2023-05-11T02:43:55.932Z,67.10
2023-05-11T02:46:29.669Z,67.17
2023-05-11T02:49:02.817Z,67.46
2023-05-11T02:51:32.941Z,67.77
2023-05-11T02:54:03.253Z,66.81
2023-05-11T02:56:33.442Z,68.17
2023-05-11T02:59:02.578Z,68.68
2023-05-11T03:01:31.421Z,69.56
2023-05-11T03:03:59.860Z,70.02
2023-05-11T03:06:29.059Z,70.45
2023-05-11T03:08:57.444Z,70.92
2023-05-11T03:11:26.457Z,71.11
2023-05-11T03:13:55.104Z,71.26
2023-05-11T03:16:24.874Z,70.75
2023-05-11T03:18:55.779Z,69.01
2023-05-11T03:21:26.463Z,67.54
2023-05-11T03:23:55.723Z,65.82
2023-05-11T03:26:23.979Z,65.20
2023-05-11T03:28:53.950Z,64.09
2023-05-11T03:31:22.181Z,62.58
2023-05-11T03:33:50.454Z,61.93
2023-05-11T03:36:19.493Z,60.58
2023-05-11T03:38:50.176Z,59.85
2023-05-11T03:41:21.709Z,59.18
2023-05-11T03:43:55.476Z,58.82
2023-05-11T03:46:24.707Z,58.36
2023-05-11T03:48:53.528Z,58.93
2023-05-11T03:51:24.553Z,57.88
2023-05-11T03:53:52.683Z,57.49
2023-05-11T03:56:21.971Z,56.72
2023-05-11T03:58:50.370Z,56.58
2023-05-11T04:05:15.068Z,56.34
2023-05-11T04:07:46.922Z,55.74
2023-05-11T04:10:14.873Z,55.51
2023-05-11T04:12:42.904Z,54.07
2023-05-11T04:15:11.582Z,53.37
2023-05-11T04:17:39.828Z,53.41
2023-05-11T04:20:08.193Z,52.75
2023-05-11T04:22:36.117Z,52.49
2023-05-11T04:25:04.887Z,51.91
2023-05-11T04:27:34.590Z,52.12
2023-05-11T04:34:37.757Z,47.52
2023-05-11T04:37:08.465Z,45.16
2023-05-11T04:39:37.891Z,42.19
2023-05-11T04:42:06.347Z,40.13
2023-05-11T04:44:34.769Z,37.59
2023-05-11T04:47:02.726Z,36.52
2023-05-11T04:49:30.843Z,34.14
2023-05-11T04:51:58.837Z,33.93
2023-05-11T04:54:27.501Z,32.68
2023-05-11T04:56:56.821Z,30.55
2023-05-11T04:59:25.077Z,30.05
2023-05-11T05:01:52.945Z,28.67
2023-05-11T05:04:21.186Z,28.35
2023-05-11T05:06:49.034Z,28.33
2023-05-11T05:09:18.982Z,27.89
2023-05-11T05:11:47.127Z,28.55
2023-05-11T05:14:15.097Z,28.66
2023-05-11T05:16:43.244Z,27.91
2023-05-11T05:19:12.884Z,28.65
2023-05-11T05:21:41.393Z,30.35
2023-05-11T05:24:11.514Z,31.12
2023-05-11T05:26:40.191Z,32.19
2023-05-11T05:29:09.004Z,32.20
2023-05-11T05:31:37.349Z,32.64
2023-05-11T05:34:05.942Z,33.74
2023-05-11T05:36:33.829Z,34.79
2023-05-11T05:39:03.801Z,35.53
2023-05-11T05:41:33.292Z,34.99
2023-05-11T05:44:01.992Z,33.62
2023-05-11T05:46:30.163Z,34.24
2023-05-11T05:48:58.426Z,34.38
2023-05-11T05:51:52.348Z,33.53
2023-05-11T05:54:20.313Z,33.60
2023-05-11T05:56:49.294Z,33.72
2023-05-11T05:59:19.562Z,33.07
2023-05-11T06:01:47.595Z,33.29
2023-05-11T06:04:16.431Z,34.15
2023-05-11T06:06:44.759Z,33.59
2023-05-11T06:09:13.327Z,33.24
2023-05-11T06:11:41.409Z,33.27
2023-05-11T06:14:09.604Z,31.59
2023-05-11T06:16:38.652Z,32.29
2023-05-11T06:19:08.359Z,31.78
2023-05-11T06:21:36.993Z,31.34
2023-05-11T06:24:05.267Z,31.44
2023-05-11T06:26:34.485Z,29.63
2023-05-11T06:29:02.384Z,30.89
2023-05-11T06:31:30.583Z,31.31
2023-05-11T06:33:58.737Z,30.98
2023-05-11T06:36:27.875Z,29.33
2023-05-11T06:38:56.251Z,29.52
2023-05-11T06:41:24.824Z,30.24
2023-05-11T06:43:53.324Z,30.46
2023-05-11T06:46:27.019Z,30.54
2023-05-11T06:48:55.099Z,30.42
2023-05-11T06:51:24.157Z,30.31
2023-05-11T06:53:52.195Z,29.10
2023-05-11T06:56:20.145Z,29.30
2023-05-11T06:58:48.716Z,27.80
2023-05-11T07:01:17.156Z,27.94
2023-05-11T07:03:45.086Z,28.12
2023-05-11T07:06:13.039Z,29.44
2023-05-11T07:08:41.138Z,29.02
2023-05-11T07:11:09.513Z,29.05
2023-05-11T07:13:37.552Z,28.20
2023-05-11T07:16:05.781Z,28.88
2023-05-11T07:18:33.746Z,28.43
2023-05-11T07:21:01.776Z,27.97
2023-05-11T07:23:29.681Z,28.70
2023-05-11T07:25:58.213Z,26.68
2023-05-11T07:28:26.165Z,27.76
2023-05-11T07:30:53.998Z,27.07
2023-05-11T07:33:22.124Z,26.94
2023-05-11T07:35:51.195Z,26.24
2023-05-11T07:38:19.143Z,26.47
2023-05-11T07:40:47.062Z,27.65
2023-05-11T07:43:15.240Z,26.68
2023-05-11T07:46:09.783Z,26.21
2023-05-11T07:48:37.726Z,26.19
2023-05-11T07:51:08.186Z,26.16
2023-05-11T07:53:36.595Z,26.58
2023-05-11T07:56:05.076Z,26.77
2023-05-11T07:58:33.057Z,26.97
2023-05-11T08:01:00.917Z,26.99
2023-05-11T08:03:29.208Z,27.88
2023-05-11T08:05:57.482Z,27.07
2023-05-11T08:08:26.775Z,26.37
2023-05-11T08:10:54.727Z,27.78
2023-05-11T08:13:23.095Z,26.97
2023-05-11T08:15:51.160Z,27.11
2023-05-11T08:18:19.109Z,28.30
2023-05-11T08:20:46.948Z,28.74
2023-05-11T08:23:18.338Z,28.12
2023-05-11T08:25:51.636Z,26.95
2023-05-11T08:28:20.664Z,27.70
2023-05-11T08:30:59.199Z,29.27
2023-05-11T08:35:59.106Z,28.72
2023-05-11T08:38:27.144Z,29.50
2023-05-11T08:40:55.094Z,29.95
2023-05-11T08:43:26.339Z,29.59
2023-05-11T08:46:00.735Z,29.33
2023-05-11T08:48:29.525Z,28.71
2023-05-11T08:50:58.044Z,28.90
2023-05-11T08:53:26.318Z,29.15
2023-05-11T08:55:57.962Z,29.68
2023-05-11T08:58:27.906Z,29.11
2023-05-11T09:00:59.424Z,28.32
2023-05-11T09:03:30.894Z,29.15
2023-05-11T09:06:00.550Z,29.09
2023-05-11T09:08:31.898Z,30.00
2023-05-11T09:11:01.124Z,30.14
2023-05-11T09:13:30.205Z,30.00
2023-05-11T09:15:59.134Z,29.64
2023-05-11T09:18:27.415Z,29.43
2023-05-11T09:20:55.533Z,29.29
2023-05-11T09:23:27.358Z,29.71
2023-05-11T09:25:56.103Z,30.64
2023-05-11T09:28:26.064Z,30.29
2023-05-11T09:30:54.383Z,28.99
2023-05-11T09:33:24.869Z,29.14
2023-05-11T09:35:53.875Z,30.28
2023-05-11T09:38:25.366Z,31.41
2023-05-11T09:40:55.881Z,29.97
2023-05-11T09:43:28.785Z,30.20
2023-05-11T09:46:01.792Z,31.08
2023-05-11T09:48:32.155Z,30.91
2023-05-11T09:51:05.690Z,30.84
2023-05-11T09:53:44.071Z,31.19
2023-05-11T09:56:13.195Z,31.56
2023-05-11T09:58:50.795Z,30.93
2023-05-11T10:01:29.621Z,30.75
2023-05-11T10:04:13.399Z,30.24
2023-05-11T10:06:49.527Z,29.25
2023-05-11T10:09:19.650Z,30.15
2023-05-11T10:11:48.367Z,30.00
2023-05-11T10:14:17.688Z,29.81
2023-05-11T10:16:47.357Z,30.17
2023-05-11T10:19:16.209Z,30.12
2023-05-11T10:21:45.143Z,29.76
2023-05-11T10:24:13.929Z,29.85
2023-05-11T10:26:42.774Z,30.77
2023-05-11T10:29:12.225Z,30.90
2023-05-11T10:31:40.796Z,31.09
2023-05-11T10:34:12.285Z,31.47
2023-05-11T10:36:49.801Z,30.86
2023-05-11T10:39:21.545Z,31.83
2023-05-11T10:42:20.076Z,32.55
2023-05-11T10:45:00.197Z,33.57
2023-05-11T10:47:44.999Z,32.38
2023-05-11T10:50:40.412Z,31.85
2023-05-11T10:53:29.960Z,30.84
2023-05-11T10:56:13.514Z,31.44
2023-05-11T10:58:47.651Z,30.91
2023-05-11T11:04:51.255Z,32.67
2023-05-11T11:07:20.238Z,32.45
2023-05-11T11:10:01.676Z,31.65
2023-05-11T11:12:30.018Z,32.05
2023-05-11T11:14:59.227Z,31.85
2023-05-11T11:17:35.111Z,33.04
2023-05-11T11:20:08.910Z,32.10
2023-05-11T11:22:41.599Z,32.02
2023-05-11T11:25:11.760Z,32.62
2023-05-11T11:27:46.145Z,33.16
2023-05-11T11:30:20.384Z,34.22
2023-05-11T11:32:53.300Z,33.11
2023-05-11T11:35:42.855Z,32.68
2023-05-11T11:38:14.497Z,32.29
2023-05-11T11:40:54.404Z,32.40
2023-05-11T11:43:24.794Z,32.94
2023-05-11T11:46:00.864Z,33.29
2023-05-11T11:48:36.251Z,33.23
2023-05-11T11:51:04.778Z,33.59
2023-05-11T11:53:36.151Z,33.26
2023-05-11T11:56:05.555Z,33.34
2023-05-11T11:58:43.137Z,31.95
2023-05-11T12:01:16.851Z,32.87
2023-05-11T12:03:47.567Z,32.97
2023-05-11T12:06:15.669Z,32.61
2023-05-11T12:08:43.692Z,32.18
2023-05-11T12:11:18.184Z,32.19
2023-05-11T12:13:46.849Z,31.46
2023-05-11T12:16:17.247Z,32.12
2023-05-11T12:19:01.023Z,32.07
2023-05-11T12:21:32.394Z,31.69
2023-05-11T12:24:03.072Z,32.52
2023-05-11T12:26:33.130Z,32.67
2023-05-11T12:29:16.800Z,32.31
2023-05-11T12:31:46.980Z,32.39
2023-05-11T12:34:19.892Z,32.25
2023-05-11T12:36:50.273Z,32.02
2023-05-11T12:39:19.197Z,31.76
2023-05-11T12:41:50.511Z,32.94
2023-05-11T12:44:20.661Z,33.14
2023-05-11T12:46:50.830Z,33.51
2023-05-11T12:49:26.580Z,32.57
2023-05-11T12:51:54.994Z,33.48
2023-05-11T12:54:31.394Z,33.51
2023-05-11T12:57:01.941Z,32.61
2023-05-11T12:59:33.419Z,33.02
2023-05-11T13:02:10.808Z,32.88
2023-05-11T13:04:41.191Z,32.97
2023-05-11T13:07:11.187Z,34.21
2023-05-11T13:09:40.336Z,34.97
2023-05-11T13:12:09.325Z,32.40
2023-05-11T13:14:37.506Z,33.35
2023-05-11T13:17:06.164Z,33.16
2023-05-11T13:19:35.002Z,34.15
2023-05-11T13:22:03.571Z,34.31
2023-05-11T13:24:32.941Z,35.32
2023-05-11T13:27:03.784Z,33.71
2023-05-11T13:29:32.110Z,32.94
2023-05-11T13:32:00.209Z,33.95
2023-05-11T13:34:28.372Z,33.16
2023-05-11T13:36:57.661Z,33.16
2023-05-11T13:39:25.840Z,34.25
2023-05-11T13:41:55.769Z,32.52
2023-05-11T13:44:24.159Z,33.04
2023-05-11T13:46:52.216Z,33.02
2023-05-11T13:49:20.617Z,33.72
2023-05-11T13:51:48.618Z,34.43
2023-05-11T13:54:16.607Z,34.57
2023-05-11T13:56:44.772Z,33.05
2023-05-11T13:59:12.783Z,34.59
2023-05-11T14:01:40.952Z,33.91
2023-05-11T14:04:09.053Z,33.56
2023-05-11T14:06:37.964Z,33.12
2023-05-11T14:09:06.191Z,33.50
2023-05-11T14:11:35.124Z,33.65
2023-05-11T14:14:04.037Z,33.74
2023-05-11T14:16:32.273Z,33.03
2023-05-11T14:19:00.860Z,33.22
2023-05-11T14:21:29.260Z,32.83
2023-05-11T14:24:10.725Z,33.33
2023-05-11T14:26:41.132Z,33.81
2023-05-11T14:29:09.749Z,33.16
2023-05-11T14:31:38.932Z,33.63
2023-05-11T14:34:07.434Z,33.80
2023-05-11T14:36:36.937Z,32.59
2023-05-11T14:39:06.185Z,33.68
2023-05-11T14:41:34.832Z,32.66
2023-05-11T14:44:03.382Z,32.75
2023-05-11T14:46:31.740Z,33.36
2023-05-11T14:48:59.905Z,32.91
2023-05-11T14:51:27.990Z,32.88
2023-05-11T14:53:56.240Z,33.77
2023-05-11T14:56:24.244Z,32.49
2023-05-11T14:58:52.392Z,34.64
2023-05-11T15:01:20.669Z,34.78
2023-05-11T15:03:49.655Z,32.62
2023-05-11T15:06:21.644Z,32.61
2023-05-11T15:08:50.634Z,32.60
2023-05-11T15:11:19.785Z,32.97
2023-05-11T15:13:49.011Z,32.23
2023-05-11T15:16:17.094Z,32.15
2023-05-11T15:18:45.460Z,32.19
2023-05-11T15:21:13.634Z,32.49
2023-05-11T15:23:41.633Z,32.34
2023-05-11T15:26:10.048Z,32.17
2023-05-11T15:28:38.029Z,32.37
2023-05-11T15:31:06.164Z,33.13
2023-05-11T15:33:34.708Z,32.46
2023-05-11T15:36:02.763Z,32.11
2023-05-11T15:38:31.069Z,33.03
2023-05-11T15:40:59.894Z,32.65
2023-05-11T15:43:28.052Z,32.78
2023-05-11T15:45:56.671Z,32.48
2023-05-11T15:48:25.097Z,33.24
2023-05-11T15:50:53.249Z,33.73
2023-05-11T15:53:22.447Z,32.74
2023-05-11T15:55:53.621Z,32.87
2023-05-11T15:58:22.516Z,33.12
2023-05-11T16:00:51.243Z,33.43
2023-05-11T16:03:20.072Z,32.89
2023-05-11T16:05:50.017Z,32.48
2023-05-11T16:08:19.081Z,33.03
2023-05-11T16:10:47.352Z,33.21
2023-05-11T16:13:15.935Z,32.75
2023-05-11T16:15:44.109Z,32.97
2023-05-11T16:18:14.354Z,32.63
2023-05-11T16:20:42.742Z,32.75
2023-05-11T16:23:10.953Z,32.40
2023-05-11T16:25:38.972Z,32.58
2023-05-11T16:28:06.996Z,32.61
2023-05-11T16:30:35.089Z,33.02
2023-05-11T16:33:03.365Z,32.69
2023-05-11T16:35:31.867Z,33.27
2023-05-11T16:38:00.202Z,32.77
2023-05-11T16:40:28.484Z,32.85
2023-05-11T16:42:57.348Z,33.34
2023-05-11T16:45:25.939Z,33.84
2023-05-11T16:47:54.197Z,33.67
2023-05-11T16:50:22.420Z,33.39
2023-05-11T16:52:50.565Z,33.13
2023-05-11T16:55:20.286Z,33.62
2023-05-11T16:57:48.388Z,33.53
2023-05-11T17:00:17.025Z,33.17
2023-05-11T17:02:45.512Z,33.48
2023-05-11T17:05:15.701Z,33.81
2023-05-11T17:07:46.251Z,33.64
2023-05-11T17:10:14.437Z,33.70
2023-05-11T17:12:42.509Z,33.77
2023-05-11T17:15:11.066Z,34.54
2023-05-11T17:17:39.930Z,34.56
2023-05-11T17:20:10.230Z,34.93
2023-05-11T17:22:38.430Z,34.76
2023-05-11T17:25:07.916Z,34.83
2023-05-11T17:27:37.368Z,34.88
2023-05-11T17:30:06.825Z,35.02
2023-05-11T17:32:35.608Z,35.16
2023-05-11T17:35:04.826Z,35.07
2023-05-11T17:37:33.322Z,35.37
2023-05-11T17:40:02.044Z,35.24
2023-05-11T17:42:31.087Z,35.52
2023-05-11T17:44:59.058Z,35.50
2023-05-11T17:47:27.288Z,35.78
2023-05-11T17:49:55.854Z,35.56
2023-05-11T17:52:25.992Z,36.08
2023-05-11T17:54:54.052Z,36.24
2023-05-11T17:57:23.477Z,36.24
2023-05-11T17:59:51.850Z,36.48
2023-05-11T18:02:19.860Z,36.60
2023-05-11T18:04:48.062Z,36.86
2023-05-11T18:07:16.108Z,37.12
2023-05-11T18:09:44.132Z,37.44
2023-05-11T18:12:11.996Z,37.25
2023-05-11T18:14:39.938Z,37.59
2023-05-11T18:17:09.165Z,37.69
2023-05-11T18:19:37.495Z,38.12
2023-05-11T18:22:05.573Z,38.29
2023-05-11T18:24:33.770Z,38.52
2023-05-11T18:27:02.255Z,38.58
2023-05-11T18:29:30.256Z,38.85
2023-05-11T18:31:58.446Z,39.25
2023-05-11T18:34:27.763Z,39.49
2023-05-11T18:36:55.651Z,39.55
2023-05-11T18:39:24.340Z,39.61
2023-05-11T18:41:52.300Z,39.88
2023-05-11T18:44:20.239Z,40.20
2023-05-11T18:46:48.693Z,40.55
2023-05-11T18:49:17.232Z,40.82
2023-05-11T18:51:45.611Z,41.01
2023-05-11T18:54:13.552Z,41.38
2023-05-11T18:56:41.848Z,41.42
2023-05-11T18:59:10.664Z,41.77
2023-05-11T19:04:34.843Z,42.15
2023-05-11T19:07:04.080Z,42.32
2023-05-11T19:09:36.063Z,42.50
2023-05-11T19:12:04.414Z,42.61
2023-05-11T19:14:35.016Z,42.85
2023-05-11T19:17:04.729Z,42.60
2023-05-11T19:19:32.863Z,42.95
2023-05-11T19:22:01.113Z,43.08
2023-05-11T19:24:29.198Z,43.27
2023-05-11T19:27:06.453Z,43.30
2023-05-11T19:29:36.151Z,43.21
2023-05-11T19:32:04.711Z,43.65
2023-05-11T19:34:33.594Z,43.79
2023-05-11T19:37:02.275Z,43.99
2023-05-11T19:39:30.206Z,44.07
2023-05-11T19:41:58.127Z,44.15
2023-05-11T19:44:26.508Z,44.27
2023-05-11T19:46:54.605Z,44.43
2023-05-11T19:49:22.635Z,44.67
2023-05-11T19:51:50.505Z,44.79
2023-05-11T19:54:18.464Z,45.09
2023-05-11T19:56:46.899Z,45.32
2023-05-11T19:59:14.932Z,45.43
2023-05-11T20:01:43.286Z,45.54
2023-05-11T20:04:12.997Z,46.25
2023-05-11T20:06:41.215Z,46.20
2023-05-11T20:09:10.454Z,46.32
2023-05-11T20:11:38.612Z,46.31
2023-05-11T20:14:06.732Z,46.45
2023-05-11T20:16:34.941Z,46.60
2023-05-11T20:19:03.283Z,46.73
2023-05-11T20:21:32.300Z,46.92
2023-05-11T20:24:01.950Z,47.10
2023-05-11T20:26:31.130Z,47.33
2023-05-11T20:28:59.377Z,47.40
2023-05-11T20:31:27.478Z,47.59
2023-05-11T20:36:27.365Z,47.93
2023-05-11T20:38:55.553Z,48.02
2023-05-11T20:41:23.640Z,48.25
2023-05-11T20:43:55.590Z,48.36
2023-05-11T20:46:23.969Z,48.34
2023-05-11T20:48:52.463Z,48.67
2023-05-11T20:51:23.297Z,48.73
2023-05-11T20:53:51.836Z,48.97
2023-05-11T20:56:20.049Z,49.12
2023-05-11T20:58:49.115Z,49.38
2023-05-11T21:01:17.397Z,49.55
2023-05-11T21:03:45.678Z,49.78
2023-05-11T21:06:13.691Z,49.82
2023-05-11T21:08:41.846Z,49.91
2023-05-11T21:11:10.800Z,50.10
2023-05-11T21:13:38.956Z,50.04
2023-05-11T21:16:08.364Z,50.15
2023-05-11T21:18:36.531Z,50.57
2023-05-11T21:21:05.158Z,50.50
2023-05-11T21:23:33.300Z,50.97
2023-05-11T21:26:02.523Z,51.14
2023-05-11T21:28:31.059Z,51.13
2023-05-11T21:30:59.231Z,51.25
2023-05-11T21:33:27.768Z,51.20
2023-05-11T21:35:56.781Z,51.35
2023-05-11T21:38:24.874Z,51.38
2023-05-11T21:40:56.521Z,51.62
2023-05-11T21:43:25.628Z,51.71
2023-05-11T21:45:54.003Z,51.68
2023-05-11T21:48:22.342Z,51.95
2023-05-11T21:50:54.593Z,52.08
2023-05-11T21:53:23.846Z,52.17
2023-05-11T21:55:52.114Z,51.54
2023-05-11T21:58:20.618Z,52.48
2023-05-11T22:00:49.173Z,52.65
2023-05-11T22:03:17.319Z,52.57
2023-05-11T22:05:46.151Z,52.88
2023-05-11T22:08:15.802Z,52.86
2023-05-11T22:10:44.344Z,52.67
2023-05-11T22:13:12.504Z,52.94
2023-05-11T22:15:41.497Z,52.80
2023-05-11T22:18:09.649Z,53.23
2023-05-11T22:20:37.956Z,53.45
2023-05-11T22:23:05.943Z,53.57
2023-05-11T22:25:34.085Z,53.68
2023-05-11T22:28:02.251Z,53.85
2023-05-11T22:30:30.605Z,53.83
2023-05-11T22:32:58.877Z,53.96
2023-05-11T22:35:27.098Z,53.93
2023-05-11T22:37:55.378Z,54.19
2023-05-11T22:40:23.439Z,54.28
2023-05-11T22:42:51.414Z,54.30
2023-05-11T22:45:20.538Z,54.40
2023-05-11T22:47:48.585Z,54.44
2023-05-11T22:50:16.872Z,54.63
2023-05-11T22:52:47.421Z,54.56
2023-05-11T22:55:15.466Z,54.57
2023-05-11T22:57:44.484Z,54.56
2023-05-11T23:00:13.674Z,54.76
2023-05-11T23:02:43.362Z,54.85
2023-05-11T23:05:11.946Z,55.08
2023-05-11T23:07:40.227Z,55.48
2023-05-11T23:10:09.317Z,55.67
2023-05-11T23:12:38.835Z,55.69
2023-05-11T23:15:07.876Z,55.84
2023-05-11T23:17:36.331Z,56.11
2023-05-11T23:20:05.182Z,56.24
2023-05-11T23:22:33.274Z,56.38
2023-05-11T23:25:02.148Z,56.42
2023-05-11T23:27:30.337Z,56.72
2023-05-11T23:29:58.611Z,56.76
2023-05-11T23:32:26.930Z,56.92
2023-05-11T23:34:55.360Z,57.04
2023-05-11T23:37:23.554Z,57.18
2023-05-11T23:39:51.865Z,57.24
2023-05-11T23:42:20.031Z,57.45
2023-05-11T23:44:48.080Z,57.50
2023-05-11T23:47:16.258Z,57.57
2023-05-11T23:49:44.379Z,57.58
2023-05-11T23:52:12.692Z,57.69
2023-05-11T23:54:40.928Z,57.83
2023-05-11T23:57:09.481Z,58.02
2023-05-11T23:59:37.872Z,58.22
